Terminal Aerodrome Forecast
Issued by NWS Wakefield, VA

Home | Current Version | Previous Version | Text Only | Print | Product List | Glossary On
Versions: 1 2 3 4 5 6 7 8 9 10 11 12 13 14
000
FTUS41 KAKQ 051006 AAB
TAFECG
TAF AMD
KECG 051006Z 0510/0606 VRB05KT 4SM -RA BR SCT004 OVC010
      TEMPO 0510/0512 3SM -RA BR OVC004
     FM051200 01005KT 4SM -RA BR OVC007
     FM051500 36008KT P6SM OVC025
     FM051700 35008KT P6SM BKN040
     FM052000 35009KT P6SM BKN250=

USA.gov is the U.S. government's official web portal to all federal, state and local government web resources and services.